sensor_id;sensor_type;location;lat;lon;timestamp;pressure;altitude;pressure_sealevel;temperature;humidity
10064;BME280;5071;52.360;13.134;2023-03-14T00:04:22;98788.25;;;11.57;84.14
10064;BME280;5071;52.360;13.134;2023-03-14T00:09:24;98783.84;;;11.56;84.42
10064;BME280;5071;52.360;13.134;2023-03-14T00:14:26;98755.78;;;11.50;84.59
10064;BME280;5071;52.360;13.134;2023-03-14T00:19:30;98738.22;;;11.28;85.40
10064;BME280;5071;52.360;13.134;2023-03-14T00:24:32;98724.78;;;11.32;85.86
10064;BME280;5071;52.360;13.134;2023-03-14T00:29:34;98715.69;;;11.18;86.54
10064;BME280;5071;52.360;13.134;2023-03-14T00:34:38;98699.75;;;11.18;86.63
10064;BME280;5071;52.360;13.134;2023-03-14T00:39:40;98710.38;;;11.18;86.78
10064;BME280;5071;52.360;13.134;2023-03-14T00:44:43;98704.44;;;11.13;87.47
10064;BME280;5071;52.360;13.134;2023-03-14T00:49:46;98695.31;;;11.00;87.84
10064;BME280;5071;52.360;13.134;2023-03-14T00:54:48;98682.13;;;10.98;88.36
10064;BME280;5071;52.360;13.134;2023-03-14T00:59:53;98671.59;;;10.97;88.68
10064;BME280;5071;52.360;13.134;2023-03-14T01:04:57;98676.03;;;10.96;88.56
10064;BME280;5071;52.360;13.134;2023-03-14T01:09:59;98687.72;;;10.92;88.82
10064;BME280;5071;52.360;13.134;2023-03-14T01:15:01;98709.53;;;10.99;88.73
10064;BME280;5071;52.360;13.134;2023-03-14T01:20:08;98742.31;;;10.98;88.28
10064;BME280;5071;52.360;13.134;2023-03-14T01:25:13;98735.13;;;11.00;88.56
10064;BME280;5071;52.360;13.134;2023-03-14T01:30:15;98754.31;;;11.06;88.43
10064;BME280;5071;52.360;13.134;2023-03-14T01:35:19;98735.94;;;11.02;88.25
10064;BME280;5071;52.360;13.134;2023-03-14T01:40:21;98748.34;;;11.01;88.62
10064;BME280;5071;52.360;13.134;2023-03-14T01:46:17;98760.16;;;10.94;89.16
10064;BME280;5071;52.360;13.134;2023-03-14T01:51:25;98744.34;;;10.93;89.06
10064;BME280;5071;52.360;13.134;2023-03-14T01:56:30;98742.72;;;10.88;89.36
10064;BME280;5071;52.360;13.134;2023-03-14T02:01:33;98721.13;;;10.77;89.74
10064;BME280;5071;52.360;13.134;2023-03-14T02:06:48;98717.56;;;10.78;89.63
10064;BME280;5071;52.360;13.134;2023-03-14T02:11:51;98718.34;;;10.80;89.45
10064;BME280;5071;52.360;13.134;2023-03-14T02:16:53;98714.25;;;10.73;89.54
10064;BME280;5071;52.360;13.134;2023-03-14T02:22:02;98717.84;;;10.72;89.68
10064;BME280;5071;52.360;13.134;2023-03-14T02:27:10;98708.94;;;10.73;89.37
10064;BME280;5071;52.360;13.134;2023-03-14T02:32:14;98695.75;;;10.72;89.10
10064;BME280;5071;52.360;13.134;2023-03-14T02:37:19;98696.47;;;10.75;89.05
10064;BME280;5071;52.360;13.134;2023-03-14T02:42:24;98689.16;;;10.80;88.50
10064;BME280;5071;52.360;13.134;2023-03-14T02:47:28;98675.22;;;10.75;88.25
10064;BME280;5071;52.360;13.134;2023-03-14T02:52:31;98658.81;;;10.67;88.37
10064;BME280;5071;52.360;13.134;2023-03-14T02:57:34;98653.09;;;10.76;87.98
10064;BME280;5071;52.360;13.134;2023-03-14T03:02:36;98636.06;;;10.80;87.56
10064;BME280;5071;52.360;13.134;2023-03-14T03:07:39;98616.34;;;10.86;87.11
10064;BME280;5071;52.360;13.134;2023-03-14T03:12:42;98601.09;;;10.72;87.50
10064;BME280;5071;52.360;13.134;2023-03-14T03:17:44;98605.63;;;10.70;87.50
10064;BME280;5071;52.360;13.134;2023-03-14T03:22:46;98619.88;;;10.67;87.66
10064;BME280;5071;52.360;13.134;2023-03-14T03:27:50;98638.38;;;10.69;87.46
10064;BME280;5071;52.360;13.134;2023-03-14T03:32:52;98643.50;;;10.74;86.82
10064;BME280;5071;52.360;13.134;2023-03-14T03:37:54;98642.25;;;10.81;86.34
10064;BME280;5071;52.360;13.134;2023-03-14T03:42:58;98641.69;;;10.74;86.74
10064;BME280;5071;52.360;13.134;2023-03-14T03:48:00;98628.47;;;10.73;86.51
10064;BME280;5071;52.360;13.134;2023-03-14T03:53:02;98622.59;;;10.66;86.39
10064;BME280;5071;52.360;13.134;2023-03-14T03:58:06;98632.41;;;10.64;86.69
10064;BME280;5071;52.360;13.134;2023-03-14T04:03:08;98622.47;;;10.69;86.26
10064;BME280;5071;52.360;13.134;2023-03-14T04:08:11;98622.88;;;10.60;86.52
10064;BME280;5071;52.360;13.134;2023-03-14T04:13:14;98632.00;;;10.73;85.84
10064;BME280;5071;52.360;13.134;2023-03-14T04:18:16;98612.13;;;10.63;85.94
10064;BME280;5071;52.360;13.134;2023-03-14T04:23:19;98606.13;;;10.59;85.83
10064;BME280;5071;52.360;13.134;2023-03-14T04:28:22;98602.50;;;10.60;85.85
10064;BME280;5071;52.360;13.134;2023-03-14T04:33:24;98595.63;;;10.56;86.00
10064;BME280;5071;52.360;13.134;2023-03-14T04:38:26;98571.69;;;10.58;85.70
10064;BME280;5071;52.360;13.134;2023-03-14T04:43:30;98564.97;;;10.50;85.92
10064;BME280;5071;52.360;13.134;2023-03-14T04:48:32;98559.72;;;10.49;85.81
10064;BME280;5071;52.360;13.134;2023-03-14T04:53:35;98581.28;;;10.41;86.16
10064;BME280;5071;52.360;13.134;2023-03-14T04:58:39;98577.19;;;10.34;86.49
10064;BME280;5071;52.360;13.134;2023-03-14T05:03:40;98580.50;;;10.39;85.99
10064;BME280;5071;52.360;13.134;2023-03-14T05:08:43;98569.13;;;10.37;85.79
10064;BME280;5071;52.360;13.134;2023-03-14T05:13:46;98561.81;;;10.42;85.12
10064;BME280;5071;52.360;13.134;2023-03-14T05:18:48;98558.22;;;10.43;84.45
10064;BME280;5071;52.360;13.134;2023-03-14T05:23:51;98564.41;;;10.44;84.14
10064;BME280;5071;52.360;13.134;2023-03-14T05:28:54;98557.72;;;10.35;84.54
10064;BME280;5071;52.360;13.134;2023-03-14T05:33:56;98547.34;;;10.49;83.35
10064;BME280;5071;52.360;13.134;2023-03-14T05:38:58;98560.44;;;10.53;82.48
10064;BME280;5071;52.360;13.134;2023-03-14T05:44:01;98569.91;;;10.58;81.71
10064;BME280;5071;52.360;13.134;2023-03-14T05:49:04;98548.59;;;10.60;81.24
10064;BME280;5071;52.360;13.134;2023-03-14T05:54:06;98560.78;;;10.64;80.45
10064;BME280;5071;52.360;13.134;2023-03-14T05:59:10;98561.50;;;10.67;80.17
10064;BME280;5071;52.360;13.134;2023-03-14T06:04:12;98563.78;;;10.75;79.45
10064;BME280;5071;52.360;13.134;2023-03-14T06:09:14;98552.25;;;10.76;79.15
10064;BME280;5071;52.360;13.134;2023-03-14T06:14:18;98564.91;;;10.88;78.45
10064;BME280;5071;52.360;13.134;2023-03-14T06:19:20;98564.06;;;10.88;78.14
10064;BME280;5071;52.360;13.134;2023-03-14T06:24:22;98566.19;;;10.99;77.62
10064;BME280;5071;52.360;13.134;2023-03-14T06:29:26;98555.91;;;11.10;77.16
10064;BME280;5071;52.360;13.134;2023-03-14T06:34:28;98569.16;;;11.10;77.11
10064;BME280;5071;52.360;13.134;2023-03-14T06:39:30;98574.03;;;11.19;76.88
10064;BME280;5071;52.360;13.134;2023-03-14T06:44:36;98579.81;;;11.27;76.53
10064;BME280;5071;52.360;13.134;2023-03-14T06:49:38;98570.13;;;11.26;76.53
10064;BME280;5071;52.360;13.134;2023-03-14T06:54:40;98571.84;;;11.27;76.86
10064;BME280;5071;52.360;13.134;2023-03-14T06:59:44;98578.25;;;11.41;76.44
10064;BME280;5071;52.360;13.134;2023-03-14T07:04:46;98596.63;;;11.45;76.33
10064;BME280;5071;52.360;13.134;2023-03-14T07:09:48;98589.34;;;11.32;76.60
10064;BME280;5071;52.360;13.134;2023-03-14T07:14:51;98589.56;;;11.27;76.70
10064;BME280;5071;52.360;13.134;2023-03-14T07:19:53;98595.53;;;11.32;76.20
10064;BME280;5071;52.360;13.134;2023-03-14T07:24:55;98604.34;;;11.50;75.90
10064;BME280;5071;52.360;13.134;2023-03-14T07:29:58;98606.78;;;11.55;75.80
10064;BME280;5071;52.360;13.134;2023-03-14T07:35:00;98610.53;;;11.51;75.90
10064;BME280;5071;52.360;13.134;2023-03-14T07:40:05;98611.38;;;11.68;75.56
10064;BME280;5071;52.360;13.134;2023-03-14T07:45:10;98609.38;;;11.91;74.51
10064;BME280;5071;52.360;13.134;2023-03-14T07:50:13;98608.25;;;12.13;73.59
10064;BME280;5071;52.360;13.134;2023-03-14T07:55:15;98602.53;;;12.20;73.49
10064;BME280;5071;52.360;13.134;2023-03-14T08:00:20;98591.41;;;12.45;72.38
10064;BME280;5071;52.360;13.134;2023-03-14T08:05:23;98590.97;;;12.37;72.28
10064;BME280;5071;52.360;13.134;2023-03-14T08:10:25;98578.88;;;12.48;71.97
10064;BME280;5071;52.360;13.134;2023-03-14T08:15:30;98576.06;;;12.51;71.80
10064;BME280;5071;52.360;13.134;2023-03-14T08:20:32;98588.25;;;12.39;71.43
10064;BME280;5071;52.360;13.134;2023-03-14T08:25:34;98581.72;;;12.60;70.95
10064;BME280;5071;52.360;13.134;2023-03-14T08:30:38;98591.25;;;12.80;70.07
10064;BME280;5071;52.360;13.134;2023-03-14T08:35:41;98603.34;;;12.70;70.72
10064;BME280;5071;52.360;13.134;2023-03-14T08:40:43;98606.91;;;12.71;70.45
10064;BME280;5071;52.360;13.134;2023-03-14T08:45:47;98613.81;;;12.57;70.46
10064;BME280;5071;52.360;13.134;2023-03-14T08:50:49;98627.53;;;12.50;70.84
10064;BME280;5071;52.360;13.134;2023-03-14T08:55:52;98615.63;;;12.89;70.50
10064;BME280;5071;52.360;13.134;2023-03-14T09:00:56;98619.53;;;13.31;68.41
10064;BME280;5071;52.360;13.134;2023-03-14T09:06:02;98602.66;;;13.30;68.34
10064;BME280;5071;52.360;13.134;2023-03-14T09:11:06;98588.53;;;13.44;67.72
10064;BME280;5071;52.360;13.134;2023-03-14T09:16:10;98571.00;;;13.40;67.08
10064;BME280;5071;52.360;13.134;2023-03-14T09:21:12;98578.06;;;13.86;65.95
10064;BME280;5071;52.360;13.134;2023-03-14T09:26:14;98575.16;;;14.62;63.53
10064;BME280;5071;52.360;13.134;2023-03-14T09:31:18;98580.72;;;15.13;61.05
10064;BME280;5071;52.360;13.134;2023-03-14T09:36:20;98574.84;;;14.09;63.42
10064;BME280;5071;52.360;13.134;2023-03-14T09:41:25;98587.22;;;13.82;63.67
10064;BME280;5071;52.360;13.134;2023-03-14T09:46:29;98584.03;;;13.75;64.07
10064;BME280;5071;52.360;13.134;2023-03-14T09:51:33;98571.25;;;13.66;63.64
10064;BME280;5071;52.360;13.134;2023-03-14T09:56:36;98583.44;;;13.70;63.85
10064;BME280;5071;52.360;13.134;2023-03-14T10:01:40;98595.47;;;13.77;63.29
10064;BME280;5071;52.360;13.134;2023-03-14T10:06:43;98593.91;;;13.58;62.75
10064;BME280;5071;52.360;13.134;2023-03-14T10:11:45;98596.31;;;13.33;62.34
10064;BME280;5071;52.360;13.134;2023-03-14T10:16:49;98585.66;;;13.33;63.26
10064;BME280;5071;52.360;13.134;2023-03-14T10:21:53;98598.25;;;13.29;62.95
10064;BME280;5071;52.360;13.134;2023-03-14T10:26:58;98591.28;;;13.27;63.83
10064;BME280;5071;52.360;13.134;2023-03-14T10:32:04;98595.69;;;13.28;64.13
10064;BME280;5071;52.360;13.134;2023-03-14T10:37:14;98585.66;;;13.33;63.97
10064;BME280;5071;52.360;13.134;2023-03-14T10:42:20;98589.88;;;13.51;63.21
10064;BME280;5071;52.360;13.134;2023-03-14T10:47:26;98589.34;;;13.60;63.00
10064;BME280;5071;52.360;13.134;2023-03-14T10:52:29;98589.00;;;13.67;63.75
10064;BME280;5071;52.360;13.134;2023-03-14T10:57:52;98592.59;;;13.66;64.51
10064;BME280;5071;52.360;13.134;2023-03-14T11:03:06;98604.16;;;13.50;64.67
10064;BME280;5071;52.360;13.134;2023-03-14T11:08:15;98595.56;;;13.45;65.08
10064;BME280;5071;52.360;13.134;2023-03-14T11:13:26;98588.88;;;13.38;65.55
10064;BME280;5071;52.360;13.134;2023-03-14T11:18:51;98596.31;;;13.33;66.12
10064;BME280;5071;52.360;13.134;2023-03-14T11:24:06;98596.97;;;13.20;66.35
10064;BME280;5071;52.360;13.134;2023-03-14T11:29:20;98601.53;;;13.18;69.14
10064;BME280;5071;52.360;13.134;2023-03-14T11:34:28;98591.03;;;13.15;67.61
10064;BME280;5071;52.360;13.134;2023-03-14T11:39:38;98597.78;;;13.07;69.23
10064;BME280;5071;52.360;13.134;2023-03-14T11:44:43;98595.59;;;13.13;69.25
10064;BME280;5071;52.360;13.134;2023-03-14T11:49:51;98579.78;;;13.26;67.66
10064;BME280;5071;52.360;13.134;2023-03-14T11:54:58;98572.88;;;13.54;66.15
10064;BME280;5071;52.360;13.134;2023-03-14T12:00:14;98575.75;;;13.65;66.02
10064;BME280;5071;52.360;13.134;2023-03-14T12:05:37;98561.78;;;13.90;64.49
10064;BME280;5071;52.360;13.134;2023-03-14T12:10:45;98555.88;;;13.85;64.66
10064;BME280;5071;52.360;13.134;2023-03-14T12:15:57;98555.88;;;13.85;64.55
10064;BME280;5071;52.360;13.134;2023-03-14T12:21:03;98552.97;;;13.74;63.64
10064;BME280;5071;52.360;13.134;2023-03-14T12:26:12;98554.91;;;13.86;64.57
10064;BME280;5071;52.360;13.134;2023-03-14T12:31:38;98540.16;;;13.95;63.61
10064;BME280;5071;52.360;13.134;2023-03-14T12:36:58;98530.72;;;14.04;63.18
10064;BME280;5071;52.360;13.134;2023-03-14T12:42:02;98536.63;;;13.80;65.11
10064;BME280;5071;52.360;13.134;2023-03-14T12:47:47;98536.22;;;13.57;66.08
10064;BME280;5071;52.360;13.134;2023-03-14T12:58:39;98534.31;;;13.74;64.74
10064;BME280;5071;52.360;13.134;2023-03-14T13:03:47;98533.00;;;13.81;63.92
10064;BME280;5071;52.360;13.134;2023-03-14T13:08:52;98536.63;;;14.09;63.40
10064;BME280;5071;52.360;13.134;2023-03-14T13:13:58;98529.59;;;14.08;62.63
10064;BME280;5071;52.360;13.134;2023-03-14T13:19:11;98517.78;;;13.97;63.67
10064;BME280;5071;52.360;13.134;2023-03-14T13:24:22;98507.66;;;14.17;63.19
10064;BME280;5071;52.360;13.134;2023-03-14T13:29:27;98511.06;;;14.33;64.74
10064;BME280;5071;52.360;13.134;2023-03-14T13:34:31;98504.34;;;14.69;64.31
10064;BME280;5071;52.360;13.134;2023-03-14T13:39:34;98500.59;;;14.99;64.51
10064;BME280;5071;52.360;13.134;2023-03-14T13:44:42;98500.50;;;15.28;63.01
10064;BME280;5071;52.360;13.134;2023-03-14T13:49:48;98511.81;;;15.31;62.37
10064;BME280;5071;52.360;13.134;2023-03-14T13:54:54;98499.84;;;15.24;62.63
10064;BME280;5071;52.360;13.134;2023-03-14T14:00:04;98495.16;;;15.01;63.69
10064;BME280;5071;52.360;13.134;2023-03-14T14:05:13;98491.22;;;15.06;63.66
10064;BME280;5071;52.360;13.134;2023-03-14T14:10:15;98498.50;;;15.04;63.11
10064;BME280;5071;52.360;13.134;2023-03-14T14:15:25;98487.94;;;15.15;63.02
10064;BME280;5071;52.360;13.134;2023-03-14T14:20:30;98493.00;;;15.33;62.30
10064;BME280;5071;52.360;13.134;2023-03-14T14:25:33;98497.69;;;15.16;62.78
10064;BME280;5071;52.360;13.134;2023-03-14T14:30:37;98480.97;;;14.73;64.34
10064;BME280;5071;52.360;13.134;2023-03-14T14:35:39;98487.63;;;14.38;65.53
10064;BME280;5071;52.360;13.134;2023-03-14T14:40:44;98490.88;;;14.29;65.78
10064;BME280;5071;52.360;13.134;2023-03-14T14:45:50;98486.13;;;14.20;66.48
10064;BME280;5071;52.360;13.134;2023-03-14T14:50:59;98479.00;;;14.06;67.11
10064;BME280;5071;52.360;13.134;2023-03-14T14:56:05;98501.75;;;13.54;73.12
10064;BME280;5071;52.360;13.134;2023-03-14T15:01:14;98501.91;;;12.91;78.58
10064;BME280;5071;52.360;13.134;2023-03-14T15:06:18;98564.72;;;12.79;78.34
10064;BME280;5071;52.360;13.134;2023-03-14T15:11:24;98650.13;;;8.75;83.82
10064;BME280;5071;52.360;13.134;2023-03-14T15:16:29;98738.78;;;6.74;95.93
10064;BME280;5071;52.360;13.134;2023-03-14T15:21:33;98817.66;;;5.78;96.72
10064;BME280;5071;52.360;13.134;2023-03-14T15:26:36;98795.53;;;5.11;97.73
10064;BME280;5071;52.360;13.134;2023-03-14T15:31:40;98853.47;;;4.61;96.98
10064;BME280;5071;52.360;13.134;2023-03-14T15:36:42;98864.47;;;4.32;98.85
10064;BME280;5071;52.360;13.134;2023-03-14T15:41:45;98881.84;;;3.87;98.94
10064;BME280;5071;52.360;13.134;2023-03-14T15:46:48;98925.03;;;3.63;100.00
10064;BME280;5071;52.360;13.134;2023-03-14T15:51:51;98966.56;;;3.29;100.00
10064;BME280;5071;52.360;13.134;2023-03-14T15:56:53;99005.50;;;2.81;100.00
10064;BME280;5071;52.360;13.134;2023-03-14T16:01:56;99045.09;;;2.44;100.00
10064;BME280;5071;52.360;13.134;2023-03-14T16:06:59;99085.56;;;1.81;100.00
10064;BME280;5071;52.360;13.134;2023-03-14T16:12:01;99112.72;;;1.15;100.00
10064;BME280;5071;52.360;13.134;2023-03-14T16:17:05;99114.47;;;0.89;100.00
10064;BME280;5071;52.360;13.134;2023-03-14T16:22:10;99114.47;;;0.84;100.00
10064;BME280;5071;52.360;13.134;2023-03-14T16:27:12;99132.75;;;0.96;100.00
10064;BME280;5071;52.360;13.134;2023-03-14T16:32:15;99164.09;;;1.10;100.00
10064;BME280;5071;52.360;13.134;2023-03-14T16:37:18;99203.31;;;1.10;100.00
10064;BME280;5071;52.360;13.134;2023-03-14T16:42:21;99232.06;;;1.24;100.00
10064;BME280;5071;52.360;13.134;2023-03-14T16:47:24;99260.81;;;1.20;100.00
10064;BME280;5071;52.360;13.134;2023-03-14T16:52:26;99288.66;;;1.08;100.00
10064;BME280;5071;52.360;13.134;2023-03-14T16:57:28;99301.72;;;1.05;100.00
10064;BME280;5071;52.360;13.134;2023-03-14T17:02:31;99323.50;;;1.07;100.00
10064;BME280;5071;52.360;13.134;2023-03-14T17:07:33;99360.13;;;1.20;100.00
10064;BME280;5071;52.360;13.134;2023-03-14T17:12:35;99376.69;;;1.31;100.00
10064;BME280;5071;52.360;13.134;2023-03-14T17:17:38;99401.09;;;1.34;100.00
10064;BME280;5071;52.360;13.134;2023-03-14T17:22:41;99414.25;;;1.48;100.00
10064;BME280;5071;52.360;13.134;2023-03-14T17:27:43;99422.09;;;1.61;100.00
10064;BME280;5071;52.360;13.134;2023-03-14T17:32:48;99438.72;;;1.73;100.00
10064;BME280;5071;52.360;13.134;2023-03-14T17:37:50;99449.19;;;1.86;100.00
10064;BME280;5071;52.360;13.134;2023-03-14T17:42:52;99469.25;;;1.88;100.00
10064;BME280;5071;52.360;13.134;2023-03-14T17:47:55;99502.44;;;1.97;100.00
10064;BME280;5071;52.360;13.134;2023-03-14T17:52:57;99519.88;;;2.12;100.00
10064;BME280;5071;52.360;13.134;2023-03-14T17:57:59;99530.38;;;2.15;100.00
10064;BME280;5071;52.360;13.134;2023-03-14T18:03:03;99556.56;;;2.24;100.00
10064;BME280;5071;52.360;13.134;2023-03-14T18:08:05;99560.03;;;2.23;100.00
10064;BME280;5071;52.360;13.134;2023-03-14T18:13:08;99573.13;;;2.23;100.00
10064;BME280;5071;52.360;13.134;2023-03-14T18:18:12;99582.78;;;2.40;100.00
10064;BME280;5071;52.360;13.134;2023-03-14T18:23:14;99603.75;;;2.46;100.00
10064;BME280;5071;52.360;13.134;2023-03-14T18:28:16;99605.53;;;2.56;100.00
10064;BME280;5071;52.360;13.134;2023-03-14T18:33:21;99610.75;;;2.62;100.00
10064;BME280;5071;52.360;13.134;2023-03-14T18:38:23;99633.44;;;2.57;100.00
10064;BME280;5071;52.360;13.134;2023-03-14T18:43:25;99650.06;;;2.58;100.00
10064;BME280;5071;52.360;13.134;2023-03-14T18:48:29;99666.66;;;2.61;100.00
10064;BME280;5071;52.360;13.134;2023-03-14T18:53:31;99671.03;;;2.71;100.00
10064;BME280;5071;52.360;13.134;2023-03-14T18:58:33;99691.13;;;2.72;100.00
10064;BME280;5071;52.360;13.134;2023-03-14T19:03:37;99705.97;;;2.75;100.00
10064;BME280;5071;52.360;13.134;2023-03-14T19:08:40;99715.63;;;2.84;100.00
10064;BME280;5071;52.360;13.134;2023-03-14T19:13:42;99729.59;;;2.83;100.00
10064;BME280;5071;52.360;13.134;2023-03-14T19:18:46;99742.69;;;2.77;99.08
10064;BME280;5071;52.360;13.134;2023-03-14T19:23:48;99768.91;;;2.84;95.55
10064;BME280;5071;52.360;13.134;2023-03-14T19:28:51;99777.63;;;2.82;94.24
10064;BME280;5071;52.360;13.134;2023-03-14T19:33:54;99775.88;;;2.81;92.71
10064;BME280;5071;52.360;13.134;2023-03-14T19:38:58;99801.19;;;2.76;92.37
10064;BME280;5071;52.360;13.134;2023-03-14T19:44:00;99798.59;;;2.80;90.26
10064;BME280;5071;52.360;13.134;2023-03-14T19:49:05;99836.13;;;2.75;91.53
10064;BME280;5071;52.360;13.134;2023-03-14T19:54:07;99836.09;;;2.71;89.99
10064;BME280;5071;52.360;13.134;2023-03-14T19:59:09;99857.00;;;2.62;90.58
10064;BME280;5071;52.360;13.134;2023-03-14T20:04:13;99875.38;;;2.65;89.00
10064;BME280;5071;52.360;13.134;2023-03-14T20:09:16;99885.00;;;2.69;87.19
10064;BME280;5071;52.360;13.134;2023-03-14T20:14:21;99895.47;;;2.65;85.76
10064;BME280;5071;52.360;13.134;2023-03-14T20:19:26;99905.13;;;2.73;84.25
10064;BME280;5071;52.360;13.134;2023-03-14T20:24:29;99922.59;;;2.75;82.23
10064;BME280;5071;52.360;13.134;2023-03-14T20:29:33;99933.91;;;2.67;82.71
10064;BME280;5071;52.360;13.134;2023-03-14T20:34:42;99935.66;;;2.71;80.96
10064;BME280;5071;52.360;13.134;2023-03-14T20:39:47;99952.25;;;2.69;81.06
10064;BME280;5071;52.360;13.134;2023-03-14T20:44:51;99963.50;;;2.52;81.38
10064;BME280;5071;52.360;13.134;2023-03-14T20:49:59;99972.97;;;2.38;83.89
10064;BME280;5071;52.360;13.134;2023-03-14T20:55:04;99991.19;;;2.24;86.00
10064;BME280;5071;52.360;13.134;2023-03-14T21:00:11;100007.63;;;2.09;87.69
10064;BME280;5071;52.360;13.134;2023-03-14T21:05:19;100009.25;;;1.98;89.57
10064;BME280;5071;52.360;13.134;2023-03-14T21:10:24;100017.03;;;1.92;90.17
10064;BME280;5071;52.360;13.134;2023-03-14T21:15:30;100023.94;;;1.85;90.79
10064;BME280;5071;52.360;13.134;2023-03-14T21:20:36;100034.34;;;1.79;92.02
10064;BME280;5071;52.360;13.134;2023-03-14T21:25:38;100043.03;;;1.77;91.33
10064;BME280;5071;52.360;13.134;2023-03-14T21:30:45;100053.50;;;1.78;91.73
10064;BME280;5071;52.360;13.134;2023-03-14T21:35:50;100065.56;;;1.67;91.34
10064;BME280;5071;52.360;13.134;2023-03-14T21:40:54;100085.69;;;1.72;90.55
10064;BME280;5071;52.360;13.134;2023-03-14T21:45:56;100097.91;;;1.72;91.04
10064;BME280;5071;52.360;13.134;2023-03-14T21:51:01;100083.97;;;1.73;88.24
10064;BME280;5071;52.360;13.134;2023-03-14T21:56:04;100085.06;;;1.90;86.94
10064;BME280;5071;52.360;13.134;2023-03-14T22:01:06;100091.97;;;1.85;86.16
10064;BME280;5071;52.360;13.134;2023-03-14T22:06:09;100103.25;;;1.81;85.64
10064;BME280;5071;52.360;13.134;2023-03-14T22:11:12;100105.81;;;1.75;85.32
10064;BME280;5071;52.360;13.134;2023-03-14T22:16:14;100116.16;;;1.69;85.43
10064;BME280;5071;52.360;13.134;2023-03-14T22:21:18;100117.88;;;1.64;85.98
10064;BME280;5071;52.360;13.134;2023-03-14T22:26:20;100123.84;;;1.55;87.08
10064;BME280;5071;52.360;13.134;2023-03-14T22:31:22;100141.09;;;1.42;87.95
10064;BME280;5071;52.360;13.134;2023-03-14T22:36:25;100155.75;;;1.32;88.32
10064;BME280;5071;52.360;13.134;2023-03-14T22:41:27;100172.09;;;1.19;89.43
10064;BME280;5071;52.360;13.134;2023-03-14T22:46:29;100174.69;;;1.17;89.24
10064;BME280;5071;52.360;13.134;2023-03-14T22:51:32;100175.63;;;1.21;88.44
10064;BME280;5071;52.360;13.134;2023-03-14T22:56:35;100181.78;;;1.25;88.15
10064;BME280;5071;52.360;13.134;2023-03-14T23:01:37;100186.00;;;1.16;88.56
10064;BME280;5071;52.360;13.134;2023-03-14T23:06:41;100185.06;;;1.11;88.71
10064;BME280;5071;52.360;13.134;2023-03-14T23:11:43;100202.34;;;1.05;89.14
10064;BME280;5071;52.360;13.134;2023-03-14T23:16:45;100205.69;;;0.96;89.03
10064;BME280;5071;52.360;13.134;2023-03-14T23:21:49;100216.00;;;0.90;89.02
10064;BME280;5071;52.360;13.134;2023-03-14T23:26:52;100217.56;;;0.78;89.84
10064;BME280;5071;52.360;13.134;2023-03-14T23:31:58;100215.81;;;0.77;89.37
10064;BME280;5071;52.360;13.134;2023-03-14T23:37:02;100228.00;;;0.77;90.04
10064;BME280;5071;52.360;13.134;2023-03-14T23:42:04;100241.81;;;0.73;89.72
10064;BME280;5071;52.360;13.134;2023-03-14T23:47:08;100241.69;;;0.65;89.91
10064;BME280;5071;52.360;13.134;2023-03-14T23:52:11;100248.53;;;0.60;90.04
10064;BME280;5071;52.360;13.134;2023-03-14T23:57:14;100260.75;;;0.61;89.80
